Time;durP1;ratioP1;P1;durP2;ratioP2;P2;SDS_P1;SDS_P2;PMS_P1;PMS_P2;Temp;Humidity;BMP_temperature;BMP_pressure;BME280_temperature;BME280_humidity;BME280_pressure;Samples;Min_cycle;Max_cycle;Signal;HPM_P1;HPM_P2
2023/06/14 00:00:48;;;;;;;0.70;0.70;;;;;;;18.43;100.00;96652.13;4965493;28;20046;-64
2023/06/14 00:03:17;;;;;;;0.70;0.70;;;;;;;18.33;100.00;96651.09;4965652;28;20543;-62
2023/06/14 00:05:46;;;;;;;0.70;0.70;;;;;;;18.27;100.00;96652.81;4965071;28;20057;-62
2023/06/14 00:08:13;;;;;;;0.70;0.70;;;;;;;18.20;100.00;96644.53;4965418;28;20059;-63
2023/06/14 00:10:41;;;;;;;0.60;0.60;;;;;;;18.13;100.00;96649.50;4965176;28;20506;-63
2023/06/14 00:13:09;;;;;;;0.60;0.60;;;;;;;18.28;100.00;96656.41;4964072;28;20059;-64
2023/06/14 00:15:36;;;;;;;0.70;0.70;;;;;;;18.29;100.00;96661.56;4965419;28;20054;-65
2023/06/14 00:18:04;;;;;;;0.60;0.60;;;;;;;18.30;100.00;96651.97;4965295;28;20226;-63
2023/06/14 00:20:32;;;;;;;0.60;0.60;;;;;;;18.18;100.00;96658.19;4964247;28;20120;-63
2023/06/14 00:23:00;;;;;;;0.70;0.70;;;;;;;18.27;100.00;96652.81;4964904;28;20110;-63
2023/06/14 00:25:27;;;;;;;0.70;0.70;;;;;;;18.37;100.00;96653.84;4979673;28;20054;-62
2023/06/14 00:27:57;;;;;;;0.70;0.70;;;;;;;18.30;100.00;96643.53;4964920;28;20051;-63
2023/06/14 00:30:24;;;;;;;0.70;0.70;;;;;;;18.12;100.00;96598.22;4963400;28;20054;-63
2023/06/14 00:32:51;;;;;;;0.70;0.70;;;;;;;18.39;100.00;96646.59;4964744;28;20146;-63
2023/06/14 00:35:18;;;;;;;0.70;0.70;;;;;;;18.29;100.00;96646.78;4963694;28;20054;-63
2023/06/14 00:37:45;;;;;;;0.70;0.70;;;;;;;18.32;100.00;96638.28;4963504;28;20501;-61
2023/06/14 00:40:12;;;;;;;0.70;0.70;;;;;;;18.33;100.00;96634.25;4964959;28;20090;-63
2023/06/14 00:42:39;;;;;;;0.70;0.70;;;;;;;18.34;100.00;96626.63;4965022;28;20050;-63
2023/06/14 00:45:06;;;;;;;0.70;0.70;;;;;;;18.31;100.00;96642.31;4979656;28;20145;-62
2023/06/14 00:47:35;;;;;;;0.70;0.70;;;;;;;17.97;100.00;96602.53;4965124;28;20051;-62
2023/06/14 00:50:02;;;;;;;0.70;0.70;;;;;;;18.32;100.00;96618.66;4964650;28;20063;-63
2023/06/14 00:52:29;;;;;;;0.70;0.70;;;;;;;18.24;100.00;96611.59;4965247;28;20153;-63
2023/06/14 00:54:56;;;;;;;0.70;0.70;;;;;;;17.96;100.00;96612.16;4964587;28;20637;-62
2023/06/14 00:57:23;;;;;;;0.70;0.70;;;;;;;18.08;100.00;96622.75;4964854;28;20050;-62
2023/06/14 00:59:50;;;;;;;0.60;0.60;;;;;;;18.10;100.00;96618.28;4964667;28;20053;-62
2023/06/14 01:02:20;;;;;;;0.70;0.70;;;;;;;18.15;100.00;96617.00;4979364;28;20065;-63
2023/06/14 01:04:49;;;;;;;0.70;0.70;;;;;;;18.15;100.00;96621.81;4979473;28;20070;-63
2023/06/14 01:07:55;;;;;;;0.70;0.70;;;;;;;17.99;100.00;96600.06;4965362;28;20058;-63
2023/06/14 01:10:32;;;;;;;0.68;0.68;;;;;;;18.05;100.00;96626.41;4964728;28;20054;-63
2023/06/14 01:13:10;;;;;;;0.73;0.73;;;;;;;18.03;100.00;96617.63;4979799;28;20057;-63
2023/06/14 01:15:38;;;;;;;0.70;0.70;;;;;;;17.65;100.00;96563.09;4965309;28;20562;-63
2023/06/14 01:18:05;;;;;;;0.70;0.70;;;;;;;17.65;100.00;96560.31;4965234;28;20069;-64
2023/06/14 01:20:36;;;;;;;0.70;0.70;;;;;;;18.00;100.00;96610.09;4964733;28;20078;-62
2023/06/14 01:23:03;;;;;;;0.70;0.70;;;;;;;18.01;100.00;96612.47;4964607;28;20463;-62
2023/06/14 01:25:30;;;;;;;0.70;0.70;;;;;;;18.08;100.00;96614.34;4978855;28;20158;-63
2023/06/14 01:28:00;;;;;;;0.70;0.70;;;;;;;18.08;100.00;96611.53;4964494;28;20604;-62
2023/06/14 01:30:28;;;;;;;0.70;0.70;;;;;;;16.39;100.00;96348.59;4979058;28;20066;-63
2023/06/14 01:32:57;;;;;;;0.70;0.70;;;;;;;17.54;100.00;96549.31;4965601;28;20153;-63
2023/06/14 01:35:25;;;;;;;0.60;0.60;;;;;;;17.97;100.00;96647.38;4982375;28;20420;-63
2023/06/14 01:37:53;;;;;;;0.70;0.70;;;;;;;18.01;100.00;96615.25;4967999;28;20541;-63
2023/06/14 01:40:21;;;;;;;0.70;0.70;;;;;;;18.00;100.00;96612.88;4967500;28;20434;-63
2023/06/14 01:42:50;;;;;;;0.70;0.70;;;;;;;18.09;100.00;96607.50;4968361;28;20054;-63
2023/06/14 01:45:18;;;;;;;0.70;0.70;;;;;;;18.06;100.00;96600.75;4968048;28;20506;-62
2023/06/14 01:47:45;;;;;;;0.70;0.70;;;;;;;18.24;100.00;96611.59;4968037;28;20110;-63
2023/06/14 01:50:12;;;;;;;0.70;0.70;;;;;;;17.93;100.00;96580.19;4967575;28;20438;-65
2023/06/14 01:52:40;;;;;;;0.75;0.75;;;;;;;18.28;100.00;96606.72;4967926;28;20047;-62
2023/06/14 01:55:07;;;;;;;0.70;0.70;;;;;;;18.01;100.00;96564.00;4967198;28;20133;-63
2023/06/14 01:57:34;;;;;;;0.70;0.70;;;;;;;18.33;100.00;96609.03;4982264;28;20094;-63
2023/06/14 02:00:03;;;;;;;0.60;0.60;;;;;;;17.87;100.00;96548.28;4967589;28;20069;-62
2023/06/14 02:02:30;;;;;;;0.70;0.70;;;;;;;18.33;100.00;96605.44;4982442;28;20433;-64
2023/06/14 02:04:57;;;;;;;0.70;0.70;;;;;;;18.31;100.00;96607.84;4982218;28;20050;-63
2023/06/14 02:07:24;;;;;;;0.70;0.70;;;;;;;18.13;100.00;96560.56;4967343;28;20109;-64
2023/06/14 02:09:51;;;;;;;0.70;0.70;;;;;;;18.31;100.00;96610.66;4967330;28;20059;-63
2023/06/14 02:12:17;;;;;;;0.77;0.77;;;;;;;18.02;100.00;96576.78;4967375;28;20043;-62
2023/06/14 02:14:44;;;;;;;0.60;0.60;;;;;;;18.26;100.00;96611.97;4966043;28;20051;-63
2023/06/14 02:17:11;;;;;;;0.65;0.65;;;;;;;18.25;100.00;96612.41;4967363;28;20066;-63
2023/06/14 02:19:38;;;;;;;0.80;0.80;;;;;;;17.74;100.00;96526.91;4966784;28;20975;-63
2023/06/14 02:22:05;;;;;;;0.60;0.60;;;;;;;18.14;100.00;96601.41;4966972;28;20055;-63
2023/06/14 02:24:32;;;;;;;0.63;0.63;;;;;;;18.08;100.00;96591.91;4968690;28;20071;-62
2023/06/14 02:26:59;;;;;;;0.70;0.70;;;;;;;18.25;100.00;96618.81;4967032;28;20051;-62
2023/06/14 02:29:26;;;;;;;0.60;0.60;;;;;;;18.04;100.00;96602.38;4967681;28;20054;-61
2023/06/14 02:31:53;;;;;;;0.80;0.80;;;;;;;18.06;100.00;96605.56;4965417;28;20046;-62
2023/06/14 02:34:21;;;;;;;0.63;0.63;;;;;;;18.15;100.00;96617.00;4984616;28;20062;-62
2023/06/14 02:36:48;;;;;;;0.70;0.70;;;;;;;18.13;100.00;96616.63;4966504;28;20051;-61
2023/06/14 02:39:15;;;;;;;0.70;0.70;;;;;;;18.23;100.00;96620.44;4967644;28;20046;-62
2023/06/14 02:41:41;;;;;;;0.80;0.80;;;;;;;18.24;100.00;96622.81;4981473;28;20061;-63
2023/06/14 02:44:11;;;;;;;0.70;0.70;;;;;;;18.26;100.00;96614.75;4966777;28;20058;-62
2023/06/14 02:46:38;;;;;;;0.70;0.70;;;;;;;18.26;100.00;96631.59;4981137;28;20055;-62
2023/06/14 02:49:05;;;;;;;0.70;0.70;;;;;;;17.53;100.00;96516.91;4966774;28;20062;-61
2023/06/14 02:51:32;;;;;;;0.70;0.70;;;;;;;18.33;100.00;96625.84;4980770;28;20442;-62
2023/06/14 02:53:58;;;;;;;0.70;0.70;;;;;;;18.10;100.00;96589.44;4967066;28;20125;-61
2023/06/14 02:56:26;;;;;;;0.70;0.70;;;;;;;18.38;100.00;96627.34;4966559;28;20080;-62
2023/06/14 02:58:53;;;;;;;0.75;0.75;;;;;;;18.37;100.00;96620.94;4981276;28;20130;-62
2023/06/14 03:01:20;;;;;;;0.70;0.70;;;;;;;18.46;100.00;96638.06;4980857;28;20073;-62
2023/06/14 03:03:47;;;;;;;0.73;0.73;;;;;;;18.42;100.00;96608.47;4966649;28;20077;-64
2023/06/14 03:06:16;;;;;;;0.75;0.75;;;;;;;18.55;100.00;96629.84;4965888;28;20078;-62
2023/06/14 03:08:43;;;;;;;0.70;0.70;;;;;;;17.96;100.00;96561.69;4981311;28;20055;-62
2023/06/14 03:11:10;;;;;;;0.70;0.70;;;;;;;18.18;100.00;96585.28;4980821;28;20497;-61
2023/06/14 03:13:38;;;;;;;0.70;0.70;;;;;;;18.43;100.00;96636.06;4966101;28;20043;-62
2023/06/14 03:16:07;;;;;;;0.70;0.70;;;;;;;18.37;100.00;96626.56;4954949;28;20047;-62
2023/06/14 03:18:35;;;;;;;0.70;0.70;;;;;;;18.26;100.00;96603.56;4947224;29;20130;-61
2023/06/14 03:21:03;;;;;;;0.70;0.70;;;;;;;18.44;100.00;96642.50;4945256;29;20121;-62
2023/06/14 03:23:29;;;;;;;0.70;0.70;;;;;;;18.41;100.00;96638.53;4929016;28;20059;-62
2023/06/14 03:25:57;;;;;;;0.70;0.70;;;;;;;18.04;100.00;96580.75;4927311;29;20074;-63
2023/06/14 03:28:23;;;;;;;0.60;0.60;;;;;;;18.00;100.00;96582.81;4942531;29;20055;-63
2023/06/14 03:30:51;;;;;;;0.70;0.70;;;;;;;18.39;100.00;96645.78;4941818;29;20434;-61
2023/06/14 03:33:19;;;;;;;0.80;0.80;;;;;;;18.08;100.00;96581.47;4958159;28;20048;-63
2023/06/14 03:35:45;;;;;;;0.70;0.70;;;;;;;18.53;100.00;96646.31;4927422;29;20051;-62
2023/06/14 03:38:12;;;;;;;0.70;0.70;;;;;;;18.57;100.00;96635.81;4927854;29;20425;-63
2023/06/14 03:40:39;;;;;;;0.70;0.70;;;;;;;17.98;100.00;96559.28;4957698;28;20048;-62
2023/06/14 03:43:06;;;;;;;0.70;0.70;;;;;;;18.66;100.00;96646.44;4930413;29;20451;-62
2023/06/14 03:45:32;;;;;;;0.60;0.60;;;;;;;18.62;100.00;96652.13;4945029;29;20051;-63
2023/06/14 03:48:00;;;;;;;0.70;0.70;;;;;;;17.98;100.00;96539.66;4960429;28;20058;-62
2023/06/14 03:50:28;;;;;;;0.70;0.70;;;;;;;18.74;100.00;96637.44;4946148;28;20098;-61
2023/06/14 03:52:55;;;;;;;0.70;0.70;;;;;;;18.83;100.00;96643.25;4946022;28;20109;-61
2023/06/14 03:55:21;;;;;;;0.70;0.70;;;;;;;18.45;100.00;96599.97;4944774;28;20066;-61
2023/06/14 03:58:08;;;;;;;0.70;0.70;;;;;;;18.83;100.00;96653.69;4945212;28;20554;-63
2023/06/14 04:00:35;;;;;;;0.70;0.70;;;;;;;18.50;100.00;96602.28;4946261;28;20051;-62
2023/06/14 04:03:04;;;;;;;0.70;0.70;;;;;;;18.34;100.00;96576.94;4935918;28;20055;-64
2023/06/14 04:05:31;;;;;;;0.70;0.70;;;;;;;18.90;100.00;96651.53;4927145;29;20079;-62
2023/06/14 04:08:00;;;;;;;0.70;0.70;;;;;;;18.96;100.00;96651.81;4927053;29;20051;-61
2023/06/14 04:10:27;;;;;;;0.70;0.70;;;;;;;19.13;100.00;96662.63;4957075;28;20063;-62
2023/06/14 04:12:54;;;;;;;0.70;0.70;;;;;;;18.81;100.00;96600.03;4941041;29;20520;-62
2023/06/14 04:15:21;;;;;;;0.77;0.77;;;;;;;19.33;100.00;96643.75;4926773;29;20062;-65
2023/06/14 04:17:48;;;;;;;0.70;0.70;;;;;;;19.53;100.00;96663.34;4926831;29;20483;-62
2023/06/14 04:20:16;;;;;;;0.80;0.80;;;;;;;19.65;100.00;96664.69;4927095;29;20052;-63
2023/06/14 04:22:43;;;;;;;0.70;0.70;;;;;;;19.71;100.00;96668.53;4926706;29;20428;-63
2023/06/14 04:25:10;;;;;;;0.70;0.70;;;;;;;19.81;100.00;96670.28;4927030;29;20048;-62
2023/06/14 04:27:37;;;;;;;0.80;0.80;;;;;;;19.91;100.00;96672.03;4925881;29;20055;-62
2023/06/14 04:30:05;;;;;;;0.80;0.80;;;;;;;19.93;100.00;96663.97;4941105;29;20078;-61
2023/06/14 04:32:38;;;;;;;0.75;0.75;;;;;;;20.09;100.00;96675.19;4926886;29;20047;-62
2023/06/14 04:35:08;;;;;;;0.80;0.80;;;;;;;19.38;100.00;96561.75;4957050;28;20055;-62
2023/06/14 04:37:39;;;;;;;0.70;0.70;;;;;;;20.19;100.00;96688.19;4956645;28;20470;-62
2023/06/14 04:40:07;;;;;;;0.80;0.80;;;;;;;20.39;100.00;96686.06;4926677;29;20060;-62
2023/06/14 04:42:38;;;;;;;0.80;0.80;;;;;;;20.47;100.00;96681.84;4926177;29;20123;-62
2023/06/14 04:45:06;;;;;;;0.80;0.80;;;;;;;20.63;100.00;96681.75;4944885;29;20051;-61
2023/06/14 04:47:34;;;;;;;0.80;0.80;;;;;;;20.79;98.14;96690.16;4945069;28;20458;-63
2023/06/14 04:50:02;;;;;;;0.70;0.70;;;;;;;20.89;97.13;96694.69;4945765;28;20059;-62
2023/06/14 04:52:29;;;;;;;0.90;0.90;;;;;;;21.07;94.87;96692.16;4945290;28;20596;-60
2023/06/14 04:54:56;;;;;;;0.80;0.80;;;;;;;21.12;94.39;96683.16;4959807;28;20078;-62
2023/06/14 04:57:25;;;;;;;0.80;0.80;;;;;;;20.32;93.52;96549.19;4942724;28;20059;-61
2023/06/14 04:59:55;;;;;;;0.90;0.90;;;;;;;21.63;93.71;96692.44;4989300;28;20051;-63
2023/06/14 05:02:25;;;;;;;0.90;0.90;;;;;;;21.64;91.74;96697.63;4929938;28;20055;-65
2023/06/14 05:04:54;;;;;;;0.90;0.90;;;;;;;21.81;91.87;96693.50;4953133;28;20378;-61
2023/06/14 05:07:23;;;;;;;0.98;0.98;;;;;;;21.70;91.78;96693.03;4945327;28;20604;-61
2023/06/14 05:09:50;;;;;;;1.00;1.00;;;;;;;21.90;92.18;96693.59;4947705;29;20055;-65
2023/06/14 05:12:18;;;;;;;0.90;0.90;;;;;;;21.46;93.96;96635.41;4948732;28;20083;-61
2023/06/14 05:14:45;;;;;;;1.08;1.08;;;;;;;21.92;88.67;96685.47;4963782;28;20058;-64
2023/06/14 05:17:12;;;;;;;0.95;0.95;;;;;;;22.19;89.78;96711.13;4948460;28;20510;-62
2023/06/14 05:19:39;;;;;;;1.00;1.00;;;;;;;22.29;90.53;96710.00;4949084;28;20134;-62
2023/06/14 05:22:06;;;;;;;0.90;0.90;;;;;;;21.99;88.37;96662.66;4948990;28;20050;-65
2023/06/14 05:24:33;;;;;;;0.90;0.90;;;;;;;22.13;87.72;96679.09;4947543;29;20267;-65
2023/06/14 05:27:00;;;;;;;0.90;0.90;;;;;;;22.34;88.78;96715.06;4948584;28;20427;-65
2023/06/14 05:29:27;;;;;;;0.90;0.90;;;;;;;22.43;87.48;96720.00;4963572;28;20065;-65
2023/06/14 05:31:56;;;;;;;1.00;1.00;;;;;;;22.53;88.00;96712.44;4948882;28;20143;-61
2023/06/14 05:34:23;;;;;;;0.98;0.98;;;;;;;22.59;86.06;96688.03;4948827;28;20059;-61
2023/06/14 05:36:50;;;;;;;1.00;1.00;;;;;;;22.82;83.03;96696.06;4947462;29;20047;-62
2023/06/14 05:39:17;;;;;;;1.15;1.15;;;;;;;22.69;83.83;96665.06;4947726;28;20049;-62
2023/06/14 05:41:43;;;;;;;0.90;0.90;;;;;;;23.00;83.79;96707.50;4947844;28;20578;-64
2023/06/14 05:44:10;;;;;;;0.88;0.88;;;;;;;23.10;82.89;96714.78;4962142;28;20050;-66
2023/06/14 05:46:37;;;;;;;1.00;1.00;;;;;;;22.90;82.01;96669.13;4951508;28;20522;-68
2023/06/14 05:49:03;;;;;;;1.10;1.10;;;;;;;23.13;81.52;96699.72;4937226;28;20051;-65
2023/06/14 05:51:30;;;;;;;1.10;1.10;;;;;;;22.82;81.56;96656.53;4966522;28;20091;-66
2023/06/14 05:53:57;;;;;;;1.00;1.00;;;;;;;22.87;83.66;96723.72;4965016;28;20101;-66
2023/06/14 05:56:23;;;;;;;0.90;0.90;;;;;;;23.09;81.71;96721.69;4947532;28;20051;-62
2023/06/14 05:58:50;;;;;;;1.08;1.08;;;;;;;21.84;81.42;96486.72;4973392;28;20063;-71
2023/06/14 06:01:17;;;;;;;1.15;1.15;;;;;;;23.23;79.74;96693.69;4963975;28;21250;-70
2023/06/14 06:03:45;;;;;;;1.05;1.05;;;;;;;23.25;79.84;96702.50;4962334;28;20059;-66
2023/06/14 06:06:13;;;;;;;1.00;1.00;;;;;;;23.32;79.78;96690.16;4956476;28;20561;-69
2023/06/14 06:08:40;;;;;;;1.00;1.00;;;;;;;23.92;79.13;96733.81;4961682;28;20047;-71
2023/06/14 06:11:07;;;;;;;1.08;1.08;;;;;;;24.11;78.58;96734.69;4958769;28;20085;-64
2023/06/14 06:13:34;;;;;;;1.40;1.40;;;;;;;24.23;76.16;96740.25;4966256;28;20061;-62
2023/06/14 06:16:02;;;;;;;1.10;1.10;;;;;;;24.15;72.75;96718.34;4965032;28;20103;-62
2023/06/14 06:18:29;;;;;;;1.10;1.10;;;;;;;24.49;71.81;96752.09;4963601;28;20061;-67
2023/06/14 06:20:56;;;;;;;1.15;1.15;;;;;;;24.36;73.25;96723.13;4963908;28;20741;-68
2023/06/14 06:23:23;;;;;;;1.20;1.20;;;;;;;24.68;72.10;96748.84;4979524;28;20065;-65
2023/06/14 06:25:50;;;;;;;1.33;1.33;;;;;;;24.58;72.51;96716.06;4967359;28;20066;-64
2023/06/14 06:28:17;;;;;;;1.40;1.40;;;;;;;24.96;69.47;96741.94;4962177;28;20145;-66
2023/06/14 06:30:44;;;;;;;1.00;1.00;;;;;;;24.90;68.77;96726.81;4962948;28;20059;-64
2023/06/14 06:33:11;;;;;;;1.23;1.23;;;;;;;24.85;68.66;96740.84;4957259;28;20047;-64
2023/06/14 06:35:38;;;;;;;1.20;1.20;;;;;;;24.10;69.84;96614.25;4975943;28;20050;-61
2023/06/14 06:38:05;;;;;;;1.40;1.40;;;;;;;25.27;69.60;96745.41;4957557;28;20050;-69
2023/06/14 06:40:31;;;;;;;1.35;1.35;;;;;;;25.17;67.76;96674.97;4956163;28;20381;-69
2023/06/14 06:42:58;;;;;;;1.27;1.27;;;;;;;25.69;63.81;96751.16;4950442;28;21107;-66
2023/06/14 06:45:25;;;;;;;1.48;1.48;;;;;;;25.64;65.16;96748.19;4944302;29;20055;-61
2023/06/14 06:47:51;;;;;;;1.20;1.20;;;;;;;25.32;68.17;96710.72;4958679;28;20047;-62
2023/06/14 06:50:19;;;;;;;1.20;1.20;;;;;;;25.39;63.30;96692.59;4975200;28;20538;-60
2023/06/14 06:52:46;;;;;;;1.30;1.30;;;;;;;25.40;65.05;96687.72;4960381;28;20061;-62
2023/06/14 06:55:14;;;;;;;1.50;1.50;;;;;;;25.55;65.89;96665.91;4976236;28;20051;-64
2023/06/14 06:57:41;;;;;;;1.20;1.20;;;;;;;25.88;64.30;96737.69;4946615;28;20055;-65
2023/06/14 07:00:09;;;;;;;1.20;1.20;;;;;;;26.16;66.41;96739.19;4988906;28;20055;-62
2023/06/14 07:02:37;;;;;;;1.50;1.50;;;;;;;25.82;67.66;96697.03;4966680;28;20163;-64
2023/06/14 07:05:04;;;;;;;1.50;1.50;;;;;;;26.27;65.54;96750.81;4966218;28;20077;-65
2023/06/14 07:07:31;;;;;;;1.23;1.23;;;;;;;25.34;67.67;96613.06;4958653;28;20226;-64
2023/06/14 07:10:00;;;;;;;1.52;1.52;;;;;;;26.21;65.73;96747.03;4953788;28;20432;-62
2023/06/14 07:12:27;;;;;;;1.50;1.50;;;;;;;25.87;65.64;96687.88;4959980;28;20059;-68
2023/06/14 07:14:53;;;;;;;1.40;1.40;;;;;;;26.38;63.46;96751.06;4958473;28;20042;-68
2023/06/14 07:17:20;;;;;;;1.38;1.38;;;;;;;26.15;62.44;96698.66;4996889;28;20051;-61
2023/06/14 07:19:47;;;;;;;1.50;1.50;;;;;;;26.15;63.05;96675.94;4964834;28;20046;-63
2023/06/14 07:22:13;;;;;;;1.42;1.42;;;;;;;27.06;62.52;96761.38;4974164;28;20055;-67
2023/06/14 07:24:41;;;;;;;1.42;1.42;;;;;;;27.25;62.07;96747.78;4963969;28;20054;-65
2023/06/14 07:27:10;;;;;;;1.42;1.42;;;;;;;27.61;59.83;96751.09;4961600;28;20485;-68
2023/06/14 07:29:40;;;;;;;1.40;1.40;;;;;;;27.27;59.69;96754.56;4943271;28;20317;-60
2023/06/14 07:32:07;;;;;;;1.70;1.70;;;;;;;27.11;58.27;96752.16;4984865;28;20657;-69
2023/06/14 07:34:34;;;;;;;1.50;1.50;;;;;;;27.01;59.95;96778.31;4945515;28;20051;-61
2023/06/14 07:37:00;;;;;;;1.50;1.50;;;;;;;26.62;57.76;96669.44;4995172;28;20490;-64
2023/06/14 07:39:27;;;;;;;1.50;1.50;;;;;;;27.78;56.65;96749.31;4943434;28;20055;-61
2023/06/14 07:41:54;;;;;;;1.50;1.50;;;;;;;28.15;57.33;96750.47;4959737;28;20059;-68
2023/06/14 07:44:26;;;;;;;1.42;1.42;;;;;;;28.14;54.83;96686.25;4962574;28;20050;-61
2023/06/14 07:46:53;;;;;;;1.30;1.30;;;;;;;26.27;58.61;96745.13;4965405;28;20158;-61
2023/06/14 07:49:19;;;;;;;1.50;1.50;;;;;;;26.81;57.54;96713.53;4963343;28;20053;-61
2023/06/14 07:51:48;;;;;;;1.40;1.40;;;;;;;25.52;56.75;96700.94;4955218;28;20056;-68
2023/06/14 07:54:14;;;;;;;1.35;1.35;;;;;;;25.74;56.97;96679.56;4955569;28;20046;-62
2023/06/14 07:56:41;;;;;;;1.60;1.60;;;;;;;26.47;56.19;96714.09;4963389;28;20055;-62
2023/06/14 07:59:10;;;;;;;1.48;1.48;;;;;;;26.45;59.31;96662.63;4960844;28;20491;-61
2023/06/14 08:01:37;;;;;;;1.60;1.60;;;;;;;26.67;58.10;96654.59;4961791;28;20161;-66
2023/06/14 08:04:04;;;;;;;1.50;1.50;;;;;;;27.53;55.86;96744.22;4995301;28;20141;-61
2023/06/14 08:06:31;;;;;;;1.40;1.40;;;;;;;27.89;54.83;96746.69;4965037;28;20050;-64
2023/06/14 08:08:58;;;;;;;1.42;1.42;;;;;;;27.67;55.71;96748.34;4954797;28;20710;-60
2023/06/14 08:11:25;;;;;;;1.38;1.38;;;;;;;28.15;54.26;96756.19;4945535;28;20062;-58
2023/06/14 08:13:51;;;;;;;1.70;1.70;;;;;;;28.04;56.04;96753.16;4939279;28;20053;-61
2023/06/14 08:16:18;;;;;;;1.55;1.55;;;;;;;27.92;54.40;96742.88;4964786;28;20055;-59
2023/06/14 08:18:45;;;;;;;1.52;1.52;;;;;;;26.34;59.41;96751.25;4964924;28;20055;-59
2023/06/14 08:21:14;;;;;;;1.40;1.40;;;;;;;26.98;57.75;96754.50;4964340;28;20341;-60
2023/06/14 08:23:42;;;;;;;1.60;1.60;;;;;;;27.71;57.08;96741.16;4950049;28;20046;-61
2023/06/14 08:26:10;;;;;;;1.55;1.55;;;;;;;28.30;55.03;96746.81;4992099;28;20058;-62
2023/06/14 08:28:37;;;;;;;1.40;1.40;;;;;;;27.97;55.80;96750.72;4961288;28;20150;-60
2023/06/14 08:31:04;;;;;;;1.75;1.75;;;;;;;27.98;53.87;96703.06;4959587;28;20502;-60
2023/06/14 08:33:33;;;;;;;1.50;1.50;;;;;;;27.49;53.03;96681.00;4962653;28;20051;-64
2023/06/14 08:36:00;;;;;;;1.30;1.30;;;;;;;28.10;54.27;96751.19;4956475;28;20565;-61
2023/06/14 08:38:26;;;;;;;1.60;1.60;;;;;;;27.02;55.50;96755.09;4945942;28;20482;-62
2023/06/14 08:40:58;;;;;;;1.40;1.40;;;;;;;27.44;53.37;96752.81;4963018;28;20586;-61
2023/06/14 08:43:24;;;;;;;1.58;1.58;;;;;;;26.74;52.86;96571.81;4967580;28;20082;-64
2023/06/14 08:45:57;;;;;;;1.50;1.50;;;;;;;28.11;52.29;96767.00;4959702;28;20130;-63
2023/06/14 08:48:26;;;;;;;1.67;1.67;;;;;;;27.86;54.90;96733.41;4950255;28;20047;-63
2023/06/14 08:51:01;;;;;;;1.58;1.58;;;;;;;27.83;54.37;96725.06;4957202;28;20062;-59
2023/06/14 08:53:31;;;;;;;1.48;1.48;;;;;;;27.98;53.57;96763.66;4953394;28;20605;-59
2023/06/14 08:56:04;;;;;;;1.42;1.42;;;;;;;28.30;53.55;96761.06;4962128;28;20053;-60
2023/06/14 08:58:33;;;;;;;1.40;1.40;;;;;;;28.63;50.26;96755.91;4999600;28;20134;-63
2023/06/14 09:01:04;;;;;;;1.70;1.70;;;;;;;29.03;52.04;96755.91;4964345;28;20101;-60
2023/06/14 09:03:32;;;;;;;1.60;1.60;;;;;;;29.27;49.32;96762.22;4959675;28;20483;-64
2023/06/14 09:06:00;;;;;;;1.50;1.50;;;;;;;29.55;49.58;96777.56;4955270;28;20073;-61
2023/06/14 09:08:31;;;;;;;1.60;1.60;;;;;;;29.63;49.73;96757.91;4949784;28;20413;-62
2023/06/14 09:10:58;;;;;;;1.70;1.70;;;;;;;29.62;48.43;96728.59;4928023;29;20058;-61
2023/06/14 09:13:26;;;;;;;1.60;1.60;;;;;;;29.67;48.77;96769.94;4936544;29;20642;-64
2023/06/14 09:15:57;;;;;;;1.90;1.90;;;;;;;29.49;48.66;96713.94;4952363;28;20120;-69
2023/06/14 09:18:34;;;;;;;1.40;1.40;;;;;;;29.74;48.01;96738.84;4950660;28;20134;-61
2023/06/14 09:21:01;;;;;;;1.55;1.55;;;;;;;29.77;46.77;96706.44;4961168;28;20149;-58
2023/06/14 09:23:28;;;;;;;1.60;1.60;;;;;;;29.67;46.79;96687.91;4956221;28;20745;-62
2023/06/14 09:25:55;;;;;;;1.55;1.55;;;;;;;28.18;48.16;96532.97;4947779;28;20066;-65
2023/06/14 09:28:27;;;;;;;1.60;1.60;;;;;;;29.55;47.91;96752.66;4972274;28;20486;-68
2023/06/14 09:30:54;;;;;;;1.60;1.60;;;;;;;29.38;48.90;96736.66;4954613;28;20073;-60
2023/06/14 09:33:21;;;;;;;1.50;1.50;;;;;;;29.35;49.03;96766.97;4994742;28;20178;-66
2023/06/14 09:35:52;;;;;;;1.60;1.60;;;;;;;28.50;52.58;96729.81;4967337;28;20517;-65
2023/06/14 09:38:19;;;;;;;1.70;1.70;;;;;;;28.86;51.52;96763.47;4968176;28;20050;-61
2023/06/14 09:40:46;;;;;;;1.55;1.55;;;;;;;28.59;53.14;96766.72;4987324;28;20529;-65
2023/06/14 09:43:12;;;;;;;1.60;1.60;;;;;;;28.54;53.95;96764.56;4945526;28;20051;-65
2023/06/14 09:45:39;;;;;;;1.40;1.40;;;;;;;27.97;54.34;96764.97;4948886;28;20426;-65
2023/06/14 09:48:08;;;;;;;1.80;1.80;;;;;;;27.50;57.87;96767.97;4948437;28;20099;-61
2023/06/14 09:50:35;;;;;;;1.35;1.35;;;;;;;27.05;57.57;96737.03;4948499;28;20425;-61
2023/06/14 09:53:05;;;;;;;1.40;1.40;;;;;;;25.94;59.89;96633.59;4948353;28;20138;-62
2023/06/14 09:55:36;;;;;;;1.27;1.27;;;;;;;25.04;63.13;96626.97;4947379;28;20082;-65
2023/06/14 09:58:05;;;;;;;1.23;1.23;;;;;;;25.56;65.73;96772.47;4947711;29;20047;-62
2023/06/14 10:00:34;;;;;;;1.20;1.20;;;;;;;24.89;69.07;96779.09;4947892;28;20454;-63
2023/06/14 10:03:18;;;;;;;1.20;1.20;;;;;;;24.15;69.83;96727.66;4962364;28;20051;-61
2023/06/14 10:05:48;;;;;;;1.00;1.00;;;;;;;23.74;73.01;96728.09;4962656;28;20051;-61
2023/06/14 10:08:17;;;;;;;1.05;1.05;;;;;;;23.96;73.93;96770.44;4948013;28;20110;-66
2023/06/14 10:10:45;;;;;;;1.00;1.00;;;;;;;23.86;75.25;96772.44;4946412;28;20133;-62
2023/06/14 10:13:13;;;;;;;0.90;0.90;;;;;;;23.82;75.86;96774.66;4953026;28;20097;-66
2023/06/14 10:15:51;;;;;;;1.00;1.00;;;;;;;23.80;75.28;96779.97;4962226;28;20169;-63
2023/06/14 10:18:59;;;;;;;1.00;1.00;;;;;;;23.72;75.88;96781.50;4968481;28;20065;-62
2023/06/14 10:21:36;;;;;;;0.90;0.90;;;;;;;23.32;76.52;96746.69;4979876;28;20171;-67
2023/06/14 10:24:06;;;;;;;0.98;0.98;;;;;;;23.34;75.95;96795.06;4957034;28;20062;-67
2023/06/14 10:26:34;;;;;;;1.00;1.00;;;;;;;23.28;77.83;96779.97;4941591;28;20126;-65
2023/06/14 10:29:09;;;;;;;1.00;1.00;;;;;;;23.42;77.23;96770.94;4988566;28;20070;-65
2023/06/14 10:31:50;;;;;;;0.93;0.93;;;;;;;23.59;78.73;96777.97;4961448;28;20054;-62
2023/06/14 10:34:28;;;;;;;1.00;1.00;;;;;;;23.92;75.77;96770.59;4965497;28;20050;-61
2023/06/14 10:37:12;;;;;;;1.00;1.00;;;;;;;24.09;73.65;96777.59;4980957;28;20556;-61
2023/06/14 10:39:45;;;;;;;0.90;0.90;;;;;;;24.52;73.01;96777.44;4945141;28;20099;-59
2023/06/14 10:42:13;;;;;;;1.10;1.10;;;;;;;24.80;72.98;96770.56;4937586;29;20070;-64
2023/06/14 10:44:55;;;;;;;1.10;1.10;;;;;;;24.92;71.62;96755.50;4948994;28;20054;-65
2023/06/14 10:47:22;;;;;;;1.30;1.30;;;;;;;25.37;69.33;96770.94;4949220;28;20430;-63
2023/06/14 10:50:01;;;;;;;1.00;1.00;;;;;;;25.54;68.66;96772.16;4945538;28;20111;-65
2023/06/14 10:52:29;;;;;;;1.30;1.30;;;;;;;25.70;66.94;96758.44;4960819;28;20085;-66
2023/06/14 10:54:59;;;;;;;1.20;1.20;;;;;;;26.22;65.29;96760.00;4945977;28;20055;-65
2023/06/14 10:57:25;;;;;;;1.15;1.15;;;;;;;26.29;64.55;96748.25;4961337;28;20082;-61
2023/06/14 10:59:52;;;;;;;1.30;1.30;;;;;;;25.88;68.79;96723.50;4975938;28;20051;-66
2023/06/14 11:02:36;;;;;;;1.20;1.20;;;;;;;25.96;71.81;96765.28;4960328;28;20051;-60
2023/06/14 11:05:06;;;;;;;1.10;1.10;;;;;;;26.05;76.09;96773.78;4984991;28;20058;-62
2023/06/14 11:07:58;;;;;;;1.40;1.40;;;;;;;26.53;69.08;96769.75;4956404;28;20057;-65
2023/06/14 11:10:45;;;;;;;1.30;1.30;;;;;;;27.03;64.65;96764.41;4930582;29;20051;-61
2023/06/14 11:13:12;;;;;;;1.55;1.55;;;;;;;27.46;64.57;96755.97;4947478;28;20043;-64
2023/06/14 11:15:44;;;;;;;1.40;1.40;;;;;;;27.39;61.09;96738.50;4943297;28;20434;-61
2023/06/14 11:18:11;;;;;;;1.60;1.60;;;;;;;27.65;64.59;96728.91;4943367;28;20062;-66
2023/06/14 11:20:40;;;;;;;1.40;1.40;;;;;;;27.16;62.09;96634.88;4955678;28;20440;-64
2023/06/14 11:23:06;;;;;;;1.50;1.50;;;;;;;27.55;62.67;96667.66;4956416;28;20183;-66
2023/06/14 11:25:33;;;;;;;1.45;1.45;;;;;;;28.37;59.32;96737.88;4954600;28;20134;-64
2023/06/14 11:28:00;;;;;;;1.42;1.42;;;;;;;28.44;57.41;96703.25;4965107;28;20088;-62
2023/06/14 11:30:27;;;;;;;1.60;1.60;;;;;;;29.09;56.10;96714.00;4947883;28;20590;-67
2023/06/14 11:32:55;;;;;;;1.45;1.45;;;;;;;29.49;53.60;96725.34;4953533;28;20065;-66
2023/06/14 11:35:25;;;;;;;1.50;1.50;;;;;;;30.10;51.90;96743.84;4958678;28;20133;-62